createdAt,value
2018-12-13T00:00:03.800Z,98966.00
2018-12-13T00:02:32.285Z,98954.00
2018-12-13T00:05:00.769Z,98950.00
2018-12-13T00:07:29.226Z,98962.00
2018-12-13T00:09:57.715Z,98948.00
2018-12-13T00:12:26.199Z,98945.00
2018-12-13T00:14:54.694Z,98951.00
2018-12-13T00:17:23.289Z,98949.00
2018-12-13T00:19:51.768Z,98944.00
2018-12-13T00:22:20.359Z,98942.00
2018-12-13T00:24:48.841Z,98949.00
2018-12-13T00:27:17.314Z,98944.00
2018-12-13T00:29:45.889Z,98942.00
2018-12-13T00:32:14.413Z,98937.00
2018-12-13T00:34:42.888Z,98941.00
2018-12-13T00:37:11.379Z,98937.00
2018-12-13T00:39:39.900Z,98937.00
2018-12-13T00:42:08.491Z,98931.00
2018-12-13T00:44:36.961Z,98942.00
2018-12-13T00:47:05.440Z,98935.00
2018-12-13T00:49:33.926Z,98934.00
2018-12-13T00:52:02.410Z,98938.00
2018-12-13T00:54:30.951Z,98941.00
2018-12-13T00:56:59.427Z,98931.00
2018-12-13T00:59:27.902Z,98930.00
2018-12-13T01:01:56.488Z,98932.00
2018-12-13T01:04:25.225Z,98939.00
2018-12-13T01:06:54.172Z,98936.00
2018-12-13T01:09:22.657Z,98930.00
2018-12-13T01:11:51.128Z,98934.00
2018-12-13T01:14:19.589Z,98924.00
2018-12-13T01:16:48.061Z,98932.00
2018-12-13T01:19:16.526Z,98926.00
2018-12-13T01:21:45.039Z,98932.00
2018-12-13T01:24:13.556Z,98934.00
2018-12-13T01:26:42.041Z,98933.00
2018-12-13T01:29:10.512Z,98929.00
2018-12-13T01:31:40.028Z,98923.00
2018-12-13T01:34:08.526Z,98927.00
2018-12-13T01:36:37.000Z,98926.00
2018-12-13T01:41:31.739Z,98917.00
2018-12-13T01:44:00.218Z,98910.00
2018-12-13T01:46:29.129Z,98907.00
2018-12-13T01:48:57.656Z,98916.00
2018-12-13T01:51:26.156Z,98918.00
2018-12-13T01:53:54.664Z,98921.00
2018-12-13T01:56:23.156Z,98915.00
2018-12-13T01:58:51.716Z,98906.00
2018-12-13T02:01:20.258Z,98892.00
2018-12-13T02:03:48.787Z,98907.00
2018-12-13T02:06:17.280Z,98911.00
2018-12-13T02:08:45.768Z,98924.00
2018-12-13T02:11:14.255Z,98911.00
2018-12-13T02:13:42.796Z,98911.00
2018-12-13T02:16:11.446Z,98910.00
2018-12-13T02:18:39.928Z,98907.00
2018-12-13T02:21:08.429Z,98910.00
2018-12-13T02:23:36.924Z,98909.00
2018-12-13T02:26:05.475Z,98896.00
2018-12-13T02:28:34.034Z,98903.00
2018-12-13T02:31:02.593Z,98905.00
2018-12-13T02:33:31.076Z,98908.00
2018-12-13T02:35:59.580Z,98898.00
2018-12-13T02:38:28.054Z,98891.00
2018-12-13T02:40:56.554Z,98902.00
2018-12-13T02:43:25.042Z,98902.00
2018-12-13T02:45:53.537Z,98898.00
2018-12-13T02:48:22.050Z,98888.00
2018-12-13T02:50:50.608Z,98890.00
2018-12-13T02:53:19.123Z,98889.00
2018-12-13T02:55:47.637Z,98881.00
2018-12-13T02:58:16.116Z,98885.00
2018-12-13T03:00:44.634Z,98880.00
2018-12-13T03:03:13.117Z,98875.00
2018-12-13T03:05:41.611Z,98865.00
2018-12-13T03:08:10.118Z,98861.00
2018-12-13T03:10:38.608Z,98865.00
2018-12-13T03:13:07.090Z,98865.00
2018-12-13T03:15:35.598Z,98861.00
2018-12-13T03:18:04.093Z,98857.00
2018-12-13T03:20:32.588Z,98858.00
2018-12-13T03:23:01.079Z,98862.00
2018-12-13T03:25:29.570Z,98846.00
2018-12-13T03:27:58.044Z,98847.00
2018-12-13T03:30:26.552Z,98850.00
2018-12-13T03:32:55.088Z,98846.00
2018-12-13T03:35:23.616Z,98847.00
2018-12-13T03:37:52.095Z,98837.00
2018-12-13T03:40:20.580Z,98846.00
2018-12-13T03:42:49.072Z,98838.00
2018-12-13T03:45:17.576Z,98835.00
2018-12-13T03:47:46.065Z,98842.00
2018-12-13T03:50:14.570Z,98832.00
2018-12-13T03:52:43.088Z,98838.00
2018-12-13T03:55:11.599Z,98838.00
2018-12-13T03:57:40.176Z,98846.00
2018-12-13T04:00:08.688Z,98835.00
2018-12-13T04:02:37.235Z,98829.00
2018-12-13T04:05:06.180Z,98831.00
2018-12-13T04:07:34.687Z,98831.00
2018-12-13T04:10:03.188Z,98828.00
2018-12-13T04:12:31.679Z,98830.00
2018-12-13T04:15:00.164Z,98832.00
2018-12-13T04:17:28.657Z,98814.00
2018-12-13T04:19:57.159Z,98829.00
2018-12-13T04:22:25.665Z,98826.00
2018-12-13T04:24:54.215Z,98825.00
2018-12-13T04:27:22.687Z,98825.00
2018-12-13T04:29:51.258Z,98829.00
2018-12-13T04:32:19.718Z,98818.00
2018-12-13T04:34:48.209Z,98808.00
2018-12-13T04:37:16.717Z,98829.00
2018-12-13T04:39:45.280Z,98823.00
2018-12-13T04:42:13.779Z,98823.00
2018-12-13T04:44:42.277Z,98807.00
2018-12-13T04:47:10.763Z,98819.00
2018-12-13T04:49:39.332Z,98815.00
2018-12-13T04:52:07.907Z,98820.00
2018-12-13T04:54:36.595Z,98812.00
2018-12-13T04:57:05.085Z,98824.00
2018-12-13T04:59:33.586Z,98822.00
2018-12-13T05:02:02.080Z,98816.00
2018-12-13T05:04:30.597Z,98813.00
2018-12-13T05:06:59.091Z,98828.00
2018-12-13T05:09:27.599Z,98813.00
2018-12-13T05:11:56.191Z,98807.00
2018-12-13T05:14:24.673Z,98800.00
2018-12-13T05:16:53.172Z,98799.00
2018-12-13T05:19:21.674Z,98816.00
2018-12-13T05:21:50.268Z,98796.00
2018-12-13T05:24:18.776Z,98791.00
2018-12-13T05:26:47.283Z,98795.00
2018-12-13T05:29:15.860Z,98797.00
2018-12-13T05:31:44.353Z,98795.00
2018-12-13T05:34:12.860Z,98786.00
2018-12-13T05:36:41.354Z,98793.00
2018-12-13T05:39:09.850Z,98788.00
2018-12-13T05:41:38.392Z,98783.00
2018-12-13T05:44:06.913Z,98775.00
2018-12-13T05:46:35.419Z,98774.00
2018-12-13T05:49:03.906Z,98780.00
2018-12-13T05:51:32.645Z,98771.00
2018-12-13T05:54:01.143Z,98775.00
2018-12-13T05:56:29.771Z,98761.00
2018-12-13T05:58:58.255Z,98780.00
2018-12-13T06:01:26.781Z,98766.00
2018-12-13T06:03:55.293Z,98760.00
2018-12-13T06:06:23.819Z,98766.00
2018-12-13T06:08:52.326Z,98777.00
2018-12-13T06:11:20.834Z,98766.00
2018-12-13T06:13:49.336Z,98772.00
2018-12-13T06:16:17.965Z,98773.00
2018-12-13T06:18:46.494Z,98785.00
2018-12-13T06:21:14.977Z,98774.00
2018-12-13T06:23:43.622Z,98769.00
2018-12-13T06:26:12.136Z,98769.00
2018-12-13T06:28:40.666Z,98777.00
2018-12-13T06:31:09.209Z,98776.00
2018-12-13T06:33:37.689Z,98768.00
2018-12-13T06:36:06.169Z,98771.00
2018-12-13T06:38:34.653Z,98774.00
2018-12-13T06:41:03.170Z,98770.00
2018-12-13T06:43:31.666Z,98771.00
2018-12-13T06:46:00.184Z,98769.00
2018-12-13T06:48:28.776Z,98778.00
2018-12-13T06:50:57.300Z,98778.00
2018-12-13T06:53:25.787Z,98771.00
2018-12-13T06:55:54.289Z,98774.00
2018-12-13T06:58:22.802Z,98772.00
2018-12-13T07:00:51.381Z,98788.00
2018-12-13T07:03:19.880Z,98793.00
2018-12-13T07:05:48.378Z,98792.00
2018-12-13T07:08:16.883Z,98781.00
2018-12-13T07:10:45.393Z,98784.00
2018-12-13T07:13:13.903Z,98782.00
2018-12-13T07:15:42.405Z,98781.00
2018-12-13T07:18:10.910Z,98779.00
2018-12-13T07:20:39.400Z,98780.00
2018-12-13T07:23:07.885Z,98775.00
2018-12-13T07:25:36.390Z,98767.00
2018-12-13T07:28:04.910Z,98784.00
2018-12-13T07:30:33.407Z,98773.00
2018-12-13T07:33:02.165Z,98777.00
2018-12-13T07:35:30.846Z,98768.00
2018-12-13T07:37:59.331Z,98766.00
2018-12-13T07:40:27.639Z,98760.00
2018-12-13T07:42:55.946Z,98770.00
2018-12-13T07:45:24.570Z,98776.00
2018-12-13T07:47:52.855Z,98763.00
2018-12-13T07:50:21.141Z,98770.00
2018-12-13T07:52:49.434Z,98769.00
2018-12-13T07:55:17.718Z,98766.00
2018-12-13T07:57:46.000Z,98763.00
2018-12-13T08:00:14.274Z,98769.00
2018-12-13T08:02:42.650Z,98776.00
2018-12-13T08:05:10.934Z,98774.00
2018-12-13T08:07:39.239Z,98769.00
2018-12-13T08:10:07.627Z,98787.00
2018-12-13T08:12:35.910Z,98781.00
2018-12-13T08:15:04.317Z,98779.00
2018-12-13T08:17:32.589Z,98781.00
2018-12-13T08:20:00.865Z,98777.00
2018-12-13T08:22:29.160Z,98770.00
2018-12-13T08:24:57.437Z,98773.00
2018-12-13T08:27:25.747Z,98771.00
2018-12-13T08:29:54.027Z,98775.00
2018-12-13T08:32:22.500Z,98772.00
2018-12-13T08:34:52.398Z,98773.00
2018-12-13T08:37:21.040Z,98773.00
2018-12-13T08:39:49.769Z,98763.00
2018-12-13T08:42:18.264Z,98764.00
2018-12-13T08:44:46.785Z,98768.00
2018-12-13T08:47:15.255Z,98766.00
2018-12-13T08:49:43.825Z,98774.00
2018-12-13T08:52:12.300Z,98759.00
2018-12-13T08:54:40.792Z,98761.00
2018-12-13T08:57:09.396Z,98764.00
2018-12-13T08:59:37.882Z,98765.00
2018-12-13T09:02:06.793Z,98759.00
2018-12-13T09:04:35.449Z,98762.00
2018-12-13T09:07:03.921Z,98762.00
2018-12-13T09:09:32.425Z,98758.00
2018-12-13T09:12:01.287Z,98759.00
2018-12-13T09:14:29.772Z,98754.00
2018-12-13T09:16:58.301Z,98760.00
2018-12-13T09:19:26.937Z,98755.00
2018-12-13T09:21:55.412Z,98757.00
2018-12-13T09:24:23.884Z,98753.00
2018-12-13T09:26:52.371Z,98752.00
2018-12-13T09:29:20.858Z,98759.00
2018-12-13T09:31:49.328Z,98758.00
2018-12-13T09:34:17.811Z,98746.00
2018-12-13T09:36:46.315Z,98749.00
2018-12-13T09:39:14.836Z,98761.00
2018-12-13T09:41:43.316Z,98752.00
2018-12-13T09:44:16.767Z,98760.00
2018-12-13T09:46:46.505Z,98752.00
2018-12-13T09:49:15.004Z,98737.00
2018-12-13T09:51:43.767Z,98727.00
2018-12-13T09:54:12.312Z,98740.00
2018-12-13T09:56:40.822Z,98728.00
2018-12-13T09:59:09.290Z,98726.00
2018-12-13T10:01:37.748Z,98725.00
2018-12-13T10:04:06.234Z,98715.00
2018-12-13T10:06:34.843Z,98724.00
2018-12-13T10:09:03.879Z,98713.00
2018-12-13T10:11:32.350Z,98702.00
2018-12-13T10:14:00.832Z,98700.00
2018-12-13T10:16:29.497Z,98692.00
2018-12-13T10:18:57.995Z,98691.00
2018-12-13T10:21:26.465Z,98700.00
2018-12-13T10:23:54.947Z,98694.00
2018-12-13T10:26:23.417Z,98688.00
2018-12-13T10:28:51.866Z,98696.00
2018-12-13T10:31:20.517Z,98693.00
2018-12-13T10:33:49.005Z,98685.00
2018-12-13T10:36:17.484Z,98693.00
2018-12-13T10:38:46.021Z,98680.00
2018-12-13T10:41:14.516Z,98687.00
2018-12-13T10:43:43.133Z,98674.00
2018-12-13T10:46:11.673Z,98668.00
2018-12-13T10:48:40.258Z,98676.00
2018-12-13T10:51:08.943Z,98674.00
2018-12-13T10:53:37.435Z,98669.00
2018-12-13T10:56:06.039Z,98662.00
2018-12-13T10:58:34.603Z,98653.00
2018-12-13T11:01:08.649Z,98655.00
2018-12-13T11:03:37.149Z,98651.00
2018-12-13T11:06:05.656Z,98646.00
2018-12-13T11:08:34.133Z,98648.00
2018-12-13T11:11:02.720Z,98644.00
2018-12-13T11:13:31.206Z,98643.00
2018-12-13T11:15:59.699Z,98645.00
2018-12-13T11:18:28.185Z,98647.00
2018-12-13T11:20:56.662Z,98643.00
2018-12-13T11:23:25.282Z,98643.00
2018-12-13T11:25:53.977Z,98651.00
2018-12-13T11:28:33.657Z,98650.00
2018-12-13T11:31:02.288Z,98655.00
2018-12-13T11:33:30.831Z,98642.00
2018-12-13T11:35:59.320Z,98638.00
2018-12-13T11:38:30.494Z,98627.00
2018-12-13T11:40:59.478Z,98639.00
2018-12-13T11:43:28.154Z,98630.00
2018-12-13T11:45:56.692Z,98645.00
2018-12-13T11:48:25.172Z,98625.00
2018-12-13T11:50:53.648Z,98634.00
2018-12-13T11:53:22.147Z,98625.00
2018-12-13T11:55:50.640Z,98620.00
2018-12-13T11:58:19.133Z,98617.00
2018-12-13T12:00:47.613Z,98623.00
2018-12-13T12:03:16.168Z,98625.00
2018-12-13T12:05:44.652Z,98621.00
2018-12-13T12:08:13.121Z,98619.00
2018-12-13T12:10:41.603Z,98609.00
2018-12-13T12:13:10.091Z,98617.00
2018-12-13T12:15:38.578Z,98604.00
2018-12-13T12:18:07.134Z,98613.00
2018-12-13T12:20:35.604Z,98594.00
2018-12-13T12:23:04.269Z,98593.00
2018-12-13T12:25:32.874Z,98596.00
2018-12-13T12:28:01.406Z,98599.00
2018-12-13T12:30:29.956Z,98597.00
2018-12-13T12:32:58.517Z,98591.00
2018-12-13T12:35:26.988Z,98593.00
2018-12-13T12:37:55.468Z,98591.00
2018-12-13T12:40:24.199Z,98594.00
2018-12-13T12:42:52.705Z,98585.00
2018-12-13T12:45:21.324Z,98581.00
2018-12-13T12:47:49.819Z,98578.00
2018-12-13T12:50:18.330Z,98586.00
2018-12-13T12:52:46.850Z,98576.00
2018-12-13T12:55:15.455Z,98576.00
2018-12-13T12:57:44.111Z,98578.00
2018-12-13T13:00:12.651Z,98577.00
2018-12-13T13:02:41.292Z,98575.00
2018-12-13T13:05:09.838Z,98568.00
2018-12-13T13:07:38.328Z,98588.00
2018-12-13T13:10:07.495Z,98573.00
2018-12-13T13:12:36.075Z,98579.00
2018-12-13T13:15:04.621Z,98582.00
2018-12-13T13:17:33.107Z,98573.00
2018-12-13T13:20:01.579Z,98588.00
2018-12-13T13:22:30.198Z,98585.00
2018-12-13T13:24:58.678Z,98573.00
2018-12-13T13:27:27.336Z,98565.00
2018-12-13T13:29:55.816Z,98576.00
2018-12-13T13:32:24.357Z,98579.00
2018-12-13T13:34:53.206Z,98579.00
2018-12-13T13:37:21.839Z,98574.00
2018-12-13T13:39:50.323Z,98572.00
2018-12-13T13:42:18.815Z,98572.00
2018-12-13T13:44:49.442Z,98581.00
2018-12-13T13:47:18.111Z,98564.00
2018-12-13T13:49:47.603Z,98570.00
2018-12-13T13:52:16.138Z,98571.00
2018-12-13T13:54:44.885Z,98579.00
2018-12-13T13:57:13.516Z,98576.00
2018-12-13T13:59:42.020Z,98575.00
2018-12-13T14:02:10.506Z,98580.00
2018-12-13T14:04:40.186Z,98571.00
2018-12-13T14:07:08.669Z,98565.00
2018-12-13T14:09:38.063Z,98571.00
2018-12-13T14:12:07.045Z,98560.00
2018-12-13T14:14:35.704Z,98563.00
2018-12-13T14:17:04.392Z,98562.00
2018-12-13T14:19:32.922Z,98566.00
2018-12-13T14:22:01.412Z,98561.00
2018-12-13T14:24:30.015Z,98558.00
2018-12-13T14:26:58.674Z,98570.00
2018-12-13T14:29:27.281Z,98563.00
2018-12-13T14:31:55.763Z,98573.00
2018-12-13T14:34:24.399Z,98571.00
2018-12-13T14:36:52.986Z,98565.00
2018-12-13T14:39:21.468Z,98576.00
2018-12-13T14:41:49.933Z,98571.00
2018-12-13T14:44:18.412Z,98576.00
2018-12-13T14:46:46.916Z,98573.00
2018-12-13T14:49:15.569Z,98577.00
2018-12-13T14:51:44.178Z,98577.00
2018-12-13T14:54:12.659Z,98584.00
2018-12-13T14:56:41.322Z,98576.00
2018-12-13T14:59:09.891Z,98578.00
2018-12-13T15:01:38.517Z,98585.00
2018-12-13T15:04:07.009Z,98580.00
2018-12-13T15:06:35.604Z,98583.00
2018-12-13T15:09:05.045Z,98579.00
2018-12-13T15:11:33.559Z,98585.00
2018-12-13T15:14:02.237Z,98586.00
2018-12-13T15:16:30.953Z,98578.00
2018-12-13T15:18:59.546Z,98577.00
2018-12-13T15:21:28.077Z,98587.00
2018-12-13T15:23:56.578Z,98587.00
2018-12-13T15:26:25.055Z,98591.00
2018-12-13T15:28:53.663Z,98587.00
2018-12-13T15:31:22.409Z,98590.00
2018-12-13T15:33:50.913Z,98594.00
2018-12-13T15:36:19.498Z,98593.00
2018-12-13T15:38:48.393Z,98590.00
2018-12-13T15:41:16.877Z,98581.00
2018-12-13T15:43:45.357Z,98597.00
2018-12-13T15:46:13.846Z,98593.00
2018-12-13T15:48:42.347Z,98598.00
2018-12-13T15:51:10.946Z,98604.00
2018-12-13T15:53:39.741Z,98598.00
2018-12-13T15:56:08.278Z,98588.00
2018-12-13T15:58:36.745Z,98606.00
2018-12-13T16:01:05.217Z,98596.00
2018-12-13T16:03:33.709Z,98599.00
2018-12-13T16:06:02.205Z,98603.00
2018-12-13T16:08:30.698Z,98605.00
2018-12-13T16:10:59.179Z,98605.00
2018-12-13T16:13:27.676Z,98600.00
2018-12-13T16:15:56.167Z,98599.00
2018-12-13T16:18:24.651Z,98599.00
2018-12-13T16:20:53.225Z,98603.00
2018-12-13T16:23:21.885Z,98611.00
2018-12-13T16:25:50.488Z,98606.00
2018-12-13T16:28:19.129Z,98608.00
2018-12-13T16:30:47.601Z,98613.00
2018-12-13T16:33:16.125Z,98603.00
2018-12-13T16:35:44.607Z,98619.00
2018-12-13T16:38:13.096Z,98605.00
2018-12-13T16:40:41.688Z,98607.00
2018-12-13T16:43:10.394Z,98612.00
2018-12-13T16:45:38.892Z,98602.00
2018-12-13T16:48:07.364Z,98610.00
2018-12-13T16:50:35.885Z,98617.00
2018-12-13T16:53:04.377Z,98614.00
2018-12-13T16:55:32.890Z,98605.00
2018-12-13T16:58:01.357Z,98614.00
2018-12-13T17:00:29.870Z,98604.00
2018-12-13T17:02:58.549Z,98615.00
2018-12-13T17:05:27.231Z,98607.00
2018-12-13T17:07:55.711Z,98609.00
2018-12-13T17:10:24.208Z,98592.00
2018-12-13T17:12:52.700Z,98602.00
2018-12-13T17:15:21.353Z,98593.00
2018-12-13T17:17:49.881Z,98597.00
2018-12-13T17:20:18.365Z,98603.00
2018-12-13T17:22:47.011Z,98607.00
2018-12-13T17:25:15.491Z,98601.00
2018-12-13T17:27:44.068Z,98603.00
2018-12-13T17:30:12.554Z,98602.00
2018-12-13T17:32:41.261Z,98599.00
2018-12-13T17:35:09.757Z,98592.00
2018-12-13T17:37:38.479Z,98594.00
2018-12-13T17:40:06.973Z,98597.00
2018-12-13T17:42:35.449Z,98591.00
2018-12-13T17:45:04.051Z,98600.00
2018-12-13T17:47:32.523Z,98601.00
2018-12-13T17:50:01.387Z,98604.00
2018-12-13T17:52:30.003Z,98604.00
2018-12-13T17:54:58.786Z,98597.00
2018-12-13T17:57:27.609Z,98604.00
2018-12-13T18:00:01.290Z,98605.00
2018-12-13T18:02:29.898Z,98607.00
2018-12-13T18:04:58.380Z,98606.00
2018-12-13T18:07:27.111Z,98609.00
2018-12-13T18:09:55.789Z,98602.00
2018-12-13T18:12:24.316Z,98615.00
2018-12-13T18:14:52.997Z,98617.00
2018-12-13T18:17:21.473Z,98615.00
2018-12-13T18:19:50.202Z,98619.00
2018-12-13T18:22:18.825Z,98618.00
2018-12-13T18:24:47.560Z,98624.00
2018-12-13T18:27:16.227Z,98625.00
2018-12-13T18:29:44.702Z,98624.00
2018-12-13T18:32:13.181Z,98617.00
2018-12-13T18:34:41.907Z,98619.00
2018-12-13T18:37:10.384Z,98621.00
2018-12-13T18:39:39.182Z,98622.00
2018-12-13T18:42:07.774Z,98628.00
2018-12-13T18:44:36.346Z,98617.00
2018-12-13T18:47:05.473Z,98622.00
2018-12-13T18:49:34.132Z,98623.00
2018-12-13T18:52:02.669Z,98621.00
2018-12-13T18:54:31.819Z,98609.00
2018-12-13T18:57:00.417Z,98625.00
2018-12-13T18:59:28.892Z,98625.00
2018-12-13T19:01:57.535Z,98629.00
2018-12-13T19:04:26.161Z,98620.00
2018-12-13T19:06:54.801Z,98624.00
2018-12-13T19:09:23.696Z,98619.00
2018-12-13T19:11:52.182Z,98623.00
2018-12-13T19:14:20.663Z,98616.00
2018-12-13T19:16:49.168Z,98623.00
2018-12-13T19:19:17.697Z,98621.00
2018-12-13T19:21:46.222Z,98624.00
2018-12-13T19:24:14.784Z,98618.00
2018-12-13T19:26:43.633Z,98624.00
2018-12-13T19:29:12.203Z,98620.00
2018-12-13T19:31:40.713Z,98625.00
2018-12-13T19:34:09.371Z,98617.00
2018-12-13T19:36:37.851Z,98619.00
2018-12-13T19:39:07.078Z,98617.00
2018-12-13T19:41:35.552Z,98620.00
2018-12-13T19:44:04.023Z,98618.00
2018-12-13T19:46:32.691Z,98622.00
2018-12-13T19:49:01.170Z,98613.00
2018-12-13T19:51:29.703Z,98622.00
2018-12-13T19:53:58.189Z,98616.00
2018-12-13T19:56:26.692Z,98608.00
2018-12-13T19:58:55.196Z,98619.00
2018-12-13T20:01:23.793Z,98610.00
2018-12-13T20:03:52.286Z,98618.00
2018-12-13T20:06:20.768Z,98619.00
2018-12-13T20:08:49.256Z,98617.00
2018-12-13T20:11:17.867Z,98615.00
2018-12-13T20:13:46.353Z,98626.00
2018-12-13T20:16:15.220Z,98619.00
2018-12-13T20:18:43.700Z,98629.00
2018-12-13T20:21:12.173Z,98625.00
2018-12-13T20:23:41.576Z,98624.00
2018-12-13T20:26:10.050Z,98630.00
2018-12-13T20:28:38.576Z,98621.00
2018-12-13T20:31:07.098Z,98630.00
2018-12-13T20:33:36.656Z,98634.00
2018-12-13T20:36:05.241Z,98625.00
2018-12-13T20:38:33.922Z,98631.00
2018-12-13T20:41:02.614Z,98623.00
2018-12-13T20:43:31.299Z,98626.00
2018-12-13T20:45:59.980Z,98630.00
2018-12-13T20:48:28.695Z,98635.00
2018-12-13T20:50:57.258Z,98634.00
2018-12-13T20:53:25.937Z,98635.00
2018-12-13T20:55:54.625Z,98644.00
2018-12-13T20:58:23.213Z,98636.00
2018-12-13T21:00:51.813Z,98643.00
2018-12-13T21:03:20.370Z,98642.00
2018-12-13T21:05:48.975Z,98639.00
2018-12-13T21:08:17.551Z,98639.00
2018-12-13T21:10:46.127Z,98647.00
2018-12-13T21:13:15.027Z,98645.00
2018-12-13T21:15:43.615Z,98635.00
2018-12-13T21:18:12.180Z,98642.00
2018-12-13T21:20:40.648Z,98635.00
2018-12-13T21:23:09.121Z,98642.00
2018-12-13T21:25:37.609Z,98646.00
2018-12-13T21:28:06.089Z,98638.00
2018-12-13T21:30:34.742Z,98640.00
2018-12-13T21:33:03.214Z,98645.00
2018-12-13T21:35:31.765Z,98639.00
2018-12-13T21:38:00.252Z,98649.00
2018-12-13T21:40:28.739Z,98646.00
2018-12-13T21:42:57.218Z,98648.00
2018-12-13T21:45:25.687Z,98645.00
2018-12-13T21:47:54.181Z,98641.00
2018-12-13T21:50:22.692Z,98637.00
2018-12-13T21:52:51.181Z,98643.00
2018-12-13T21:55:19.674Z,98642.00
2018-12-13T21:57:48.145Z,98643.00
2018-12-13T22:00:16.674Z,98638.00
2018-12-13T22:02:45.159Z,98639.00
2018-12-13T22:05:13.645Z,98639.00
2018-12-13T22:07:42.131Z,98646.00
2018-12-13T22:10:10.678Z,98640.00
2018-12-13T22:12:39.159Z,98629.00
2018-12-13T22:15:10.892Z,98641.00
2018-12-13T22:17:39.369Z,98639.00
2018-12-13T22:20:08.036Z,98646.00
2018-12-13T22:22:36.514Z,98649.00
2018-12-13T22:25:06.291Z,98656.00
2018-12-13T22:27:34.869Z,98650.00
2018-12-13T22:30:03.577Z,98652.00
2018-12-13T22:32:32.089Z,98653.00
2018-12-13T22:35:00.564Z,98651.00
2018-12-13T22:37:29.044Z,98650.00
2018-12-13T22:39:57.509Z,98649.00
2018-12-13T22:42:25.990Z,98648.00
2018-12-13T22:44:54.441Z,98651.00
2018-12-13T22:47:22.918Z,98663.00
2018-12-13T22:49:51.447Z,98656.00
2018-12-13T22:52:19.923Z,98651.00
2018-12-13T22:54:48.403Z,98653.00
2018-12-13T22:57:16.890Z,98656.00
2018-12-13T22:59:46.445Z,98644.00
2018-12-13T23:02:15.092Z,98645.00
2018-12-13T23:04:43.561Z,98644.00
2018-12-13T23:07:12.061Z,98646.00
2018-12-13T23:09:40.546Z,98646.00
2018-12-13T23:12:09.034Z,98642.00
2018-12-13T23:14:37.506Z,98643.00
2018-12-13T23:17:05.975Z,98649.00
2018-12-13T23:19:34.483Z,98642.00
2018-12-13T23:22:02.955Z,98649.00
2018-12-13T23:24:31.516Z,98660.00
2018-12-13T23:26:59.987Z,98641.00
2018-12-13T23:29:28.465Z,98635.00
2018-12-13T23:31:56.945Z,98650.00
2018-12-13T23:34:25.449Z,98641.00
2018-12-13T23:36:54.266Z,98646.00
2018-12-13T23:39:22.818Z,98638.00
2018-12-13T23:41:51.294Z,98644.00
2018-12-13T23:44:19.802Z,98642.00
2018-12-13T23:46:48.280Z,98643.00
2018-12-13T23:49:16.756Z,98646.00
2018-12-13T23:51:45.340Z,98645.00
2018-12-13T23:54:13.836Z,98639.00
2018-12-13T23:56:42.306Z,98643.00
2018-12-13T23:59:10.925Z,98652.00
